createdAt,value
2019-03-30T00:01:52.009Z,4.10
2019-03-30T00:04:23.335Z,4.12
2019-03-30T00:06:54.498Z,4.04
2019-03-30T00:09:25.816Z,3.96
2019-03-30T00:11:58.001Z,3.99
2019-03-30T00:14:29.315Z,3.95
2019-03-30T00:17:00.425Z,3.89
2019-03-30T00:19:35.069Z,3.88
2019-03-30T00:22:04.580Z,3.83
2019-03-30T00:24:36.311Z,3.72
2019-03-30T00:27:07.619Z,3.96
2019-03-30T00:29:38.822Z,4.05
2019-03-30T00:32:10.349Z,4.05
2019-03-30T00:34:41.505Z,4.03
2019-03-30T00:37:12.901Z,4.00
2019-03-30T00:39:44.003Z,3.70
2019-03-30T00:42:15.204Z,3.48
2019-03-30T00:44:46.376Z,3.48
2019-03-30T00:47:17.559Z,3.44
2019-03-30T00:49:50.125Z,3.46
2019-03-30T00:52:21.551Z,3.60
2019-03-30T00:54:52.851Z,3.80
2019-03-30T00:57:23.995Z,3.82
2019-03-30T00:59:55.170Z,3.65
2019-03-30T01:02:26.364Z,3.60
2019-03-30T01:04:57.534Z,3.64
2019-03-30T01:07:28.790Z,3.69
2019-03-30T01:09:59.985Z,3.60
2019-03-30T01:12:31.147Z,3.58
2019-03-30T01:15:02.389Z,3.40
2019-03-30T01:17:33.590Z,3.33
2019-03-30T01:20:05.448Z,3.40
2019-03-30T01:22:36.713Z,3.61
2019-03-30T01:25:08.828Z,3.81
2019-03-30T01:27:40.110Z,3.85
2019-03-30T01:30:22.420Z,3.85
2019-03-30T01:32:44.799Z,3.39
2019-03-30T01:35:16.941Z,3.37
2019-03-30T01:37:48.434Z,3.53
2019-03-30T01:40:19.704Z,3.58
2019-03-30T01:42:50.821Z,3.64
2019-03-30T01:45:21.968Z,3.68
2019-03-30T01:47:53.234Z,3.76
2019-03-30T01:50:24.449Z,3.81
2019-03-30T01:52:55.769Z,3.72
2019-03-30T01:55:26.928Z,3.77
2019-03-30T01:57:58.044Z,3.78
2019-03-30T02:00:29.230Z,3.85
2019-03-30T02:03:00.570Z,3.86
2019-03-30T02:05:31.719Z,3.89
2019-03-30T02:08:02.880Z,3.79
2019-03-30T02:10:44.180Z,3.71
2019-03-30T02:13:16.134Z,3.57
2019-03-30T02:15:47.378Z,3.46
2019-03-30T02:18:18.628Z,3.39
2019-03-30T02:20:50.331Z,3.51
2019-03-30T02:23:21.744Z,3.55
2019-03-30T02:25:53.183Z,3.45
2019-03-30T02:28:24.450Z,3.39
2019-03-30T02:30:55.661Z,3.45
2019-03-30T02:33:26.818Z,3.51
2019-03-30T02:35:57.980Z,3.49
2019-03-30T02:38:29.501Z,3.55
2019-03-30T02:41:00.679Z,3.58
2019-03-30T02:43:31.907Z,3.45
2019-03-30T02:46:03.120Z,3.38
2019-03-30T02:48:35.092Z,3.23
2019-03-30T02:51:06.596Z,3.10
2019-03-30T02:53:37.755Z,3.10
2019-03-30T02:56:09.080Z,3.06
2019-03-30T02:58:40.196Z,2.90
2019-03-30T03:01:11.709Z,2.99
2019-03-30T03:03:43.196Z,3.01
2019-03-30T03:06:14.649Z,2.95
2019-03-30T03:08:45.718Z,2.89
2019-03-30T03:11:16.999Z,2.88
2019-03-30T03:13:48.360Z,2.71
2019-03-30T03:16:19.547Z,2.59
2019-03-30T03:18:50.784Z,2.63
2019-03-30T03:21:22.193Z,2.80
2019-03-30T03:23:53.373Z,2.55
2019-03-30T03:26:24.602Z,2.35
2019-03-30T03:28:55.980Z,2.27
2019-03-30T03:31:27.571Z,2.18
2019-03-30T03:33:59.050Z,2.41
2019-03-30T03:36:30.311Z,2.37
2019-03-30T03:39:01.540Z,2.88
2019-03-30T03:41:32.660Z,3.04
2019-03-30T03:44:03.895Z,3.11
2019-03-30T03:46:35.180Z,3.12
2019-03-30T03:49:06.515Z,3.08
2019-03-30T03:51:38.072Z,3.05
2019-03-30T03:54:09.409Z,3.00
2019-03-30T03:56:41.673Z,2.97
2019-03-30T03:59:14.409Z,3.00
2019-03-30T04:01:47.005Z,3.06
2019-03-30T04:04:19.731Z,3.02
2019-03-30T04:06:53.379Z,2.92
2019-03-30T04:09:27.680Z,2.82
2019-03-30T04:12:01.040Z,2.75
2019-03-30T04:14:34.439Z,2.79
2019-03-30T04:17:05.655Z,2.61
2019-03-30T04:19:36.814Z,2.47
2019-03-30T04:22:08.080Z,2.41
2019-03-30T04:24:39.429Z,2.42
2019-03-30T04:27:10.686Z,2.40
2019-03-30T04:29:41.846Z,2.19
2019-03-30T04:32:13.045Z,1.98
2019-03-30T04:34:44.199Z,1.95
2019-03-30T04:37:15.401Z,2.03
2019-03-30T04:39:46.919Z,2.13
2019-03-30T04:42:18.324Z,2.23
2019-03-30T04:44:49.614Z,2.34
2019-03-30T04:47:21.014Z,2.62
2019-03-30T04:49:52.301Z,2.67
2019-03-30T04:52:23.685Z,2.60
2019-03-30T04:54:54.999Z,2.54
2019-03-30T04:57:26.794Z,2.52
2019-03-30T04:59:58.324Z,2.73
2019-03-30T05:02:29.612Z,2.67
2019-03-30T05:05:01.570Z,2.50
2019-03-30T05:07:32.716Z,2.74
2019-03-30T05:10:04.488Z,2.66
2019-03-30T05:12:36.114Z,2.42
2019-03-30T05:15:07.932Z,2.71
2019-03-30T05:17:47.370Z,2.89
2019-03-30T05:20:12.510Z,3.08
2019-03-30T05:22:43.764Z,3.25
2019-03-30T05:25:15.030Z,3.55
2019-03-30T05:27:46.359Z,3.73
2019-03-30T05:30:17.774Z,3.97
2019-03-30T05:32:49.585Z,4.39
2019-03-30T05:35:21.007Z,4.70
2019-03-30T05:37:52.495Z,5.01
2019-03-30T05:40:24.112Z,5.48
2019-03-30T05:42:55.634Z,5.98
2019-03-30T05:45:27.045Z,6.25
2019-03-30T05:47:58.524Z,6.34
2019-03-30T05:50:30.292Z,6.69
2019-03-30T05:53:01.630Z,7.37
2019-03-30T05:55:32.862Z,8.10
2019-03-30T05:58:04.165Z,7.79
2019-03-30T06:00:35.793Z,7.77
2019-03-30T06:03:07.189Z,8.12
2019-03-30T06:05:38.584Z,8.67
2019-03-30T06:08:10.155Z,9.27
2019-03-30T06:10:41.363Z,9.41
2019-03-30T06:13:12.871Z,9.73
2019-03-30T06:15:44.463Z,10.69
2019-03-30T06:18:15.724Z,10.22
2019-03-30T06:20:47.114Z,10.22
2019-03-30T06:23:18.360Z,10.30
2019-03-30T06:25:49.732Z,10.30
2019-03-30T06:28:20.971Z,10.64
2019-03-30T06:30:52.230Z,10.68
2019-03-30T06:33:23.447Z,10.53
2019-03-30T06:35:54.732Z,11.35
2019-03-30T06:38:26.008Z,11.87
2019-03-30T06:40:57.323Z,12.18
2019-03-30T06:43:28.704Z,12.74
2019-03-30T06:45:59.785Z,12.92
2019-03-30T06:48:31.018Z,13.05
2019-03-30T06:51:02.210Z,13.03
2019-03-30T06:53:33.408Z,13.68
2019-03-30T06:56:04.630Z,13.46
2019-03-30T06:58:35.808Z,14.53
2019-03-30T07:01:07.458Z,16.11
2019-03-30T07:03:38.908Z,15.69
2019-03-30T07:06:10.335Z,16.66
2019-03-30T07:08:44.084Z,17.39
2019-03-30T07:11:21.429Z,17.33
2019-03-30T07:13:49.274Z,17.06
2019-03-30T07:16:20.606Z,16.66
2019-03-30T07:18:53.863Z,17.03
2019-03-30T07:21:25.064Z,17.70
2019-03-30T07:23:56.178Z,18.49
2019-03-30T07:26:27.420Z,17.92
2019-03-30T07:28:58.567Z,17.66
2019-03-30T07:31:29.894Z,17.52
2019-03-30T07:34:01.158Z,17.28
2019-03-30T07:36:32.438Z,17.55
2019-03-30T07:39:04.448Z,18.97
2019-03-30T07:41:35.679Z,19.90
2019-03-30T07:44:08.708Z,19.92
2019-03-30T07:46:39.917Z,19.71
2019-03-30T07:49:11.134Z,20.53
2019-03-30T07:51:42.278Z,21.31
2019-03-30T07:54:13.541Z,21.42
2019-03-30T07:56:44.711Z,21.84
2019-03-30T07:59:15.991Z,22.06
2019-03-30T08:01:47.350Z,23.04
2019-03-30T08:04:18.484Z,22.58
2019-03-30T08:06:49.770Z,22.99
2019-03-30T08:09:21.449Z,23.93
2019-03-30T08:11:52.809Z,23.94
2019-03-30T08:14:24.129Z,23.32
2019-03-30T08:16:55.498Z,23.20
2019-03-30T08:19:26.761Z,23.02
2019-03-30T08:21:58.054Z,24.60
2019-03-30T08:24:29.220Z,24.54
2019-03-30T08:27:00.539Z,24.01
2019-03-30T08:29:31.875Z,24.07
2019-03-30T08:32:03.015Z,23.23
2019-03-30T08:34:34.253Z,23.85
2019-03-30T08:37:05.684Z,23.79
2019-03-30T08:39:36.745Z,23.79
2019-03-30T08:42:08.030Z,24.05
2019-03-30T08:44:39.234Z,24.62
2019-03-30T08:47:10.384Z,24.11
2019-03-30T08:49:41.488Z,26.34
2019-03-30T08:52:12.764Z,25.78
2019-03-30T08:54:44.055Z,26.06
2019-03-30T08:57:15.313Z,27.06
2019-03-30T08:59:46.638Z,26.96
2019-03-30T09:02:17.859Z,27.32
2019-03-30T09:04:49.180Z,28.00
2019-03-30T09:07:20.491Z,28.95
2019-03-30T09:09:52.084Z,28.89
2019-03-30T09:12:23.434Z,27.27
2019-03-30T09:14:54.710Z,26.28
2019-03-30T09:17:26.024Z,26.38
2019-03-30T09:19:57.204Z,27.97
2019-03-30T09:22:28.559Z,26.85
2019-03-30T09:24:59.864Z,27.17
2019-03-30T09:27:31.221Z,25.41
2019-03-30T09:30:02.504Z,24.91
2019-03-30T09:32:33.664Z,24.88
2019-03-30T09:35:05.281Z,25.18
2019-03-30T09:37:36.643Z,26.79
2019-03-30T09:40:08.848Z,27.14
2019-03-30T09:42:40.414Z,28.73
2019-03-30T09:45:11.964Z,28.21
2019-03-30T09:47:43.203Z,29.65
2019-03-30T09:50:14.898Z,27.39
2019-03-30T09:52:46.232Z,29.36
2019-03-30T09:55:17.540Z,28.98
2019-03-30T09:57:48.944Z,27.01
2019-03-30T10:00:20.420Z,28.30
2019-03-30T10:02:51.678Z,29.12
2019-03-30T10:05:22.975Z,27.54
2019-03-30T10:07:54.303Z,27.64
2019-03-30T10:10:25.843Z,26.85
2019-03-30T10:12:57.202Z,27.35
2019-03-30T10:15:28.468Z,27.89
2019-03-30T10:17:59.750Z,28.81
2019-03-30T10:20:31.007Z,28.07
2019-03-30T10:23:02.360Z,28.06
2019-03-30T10:25:33.723Z,27.44
2019-03-30T10:28:05.017Z,28.43
2019-03-30T10:30:36.410Z,26.49
2019-03-30T10:33:07.568Z,26.08
2019-03-30T10:35:39.010Z,27.14
2019-03-30T10:38:10.305Z,27.12
2019-03-30T10:40:41.505Z,26.71
2019-03-30T10:43:12.715Z,26.40
2019-03-30T10:45:43.940Z,27.25
2019-03-30T10:48:15.238Z,27.78
2019-03-30T10:50:46.451Z,27.71
2019-03-30T10:53:17.824Z,28.27
2019-03-30T10:55:49.398Z,29.24
2019-03-30T10:58:20.697Z,27.70
2019-03-30T11:00:51.959Z,28.64
2019-03-30T11:03:23.185Z,27.02
2019-03-30T11:05:54.563Z,24.79
2019-03-30T11:08:25.728Z,24.67
2019-03-30T11:10:56.850Z,23.36
2019-03-30T11:13:28.148Z,24.90
2019-03-30T11:15:59.337Z,25.23
2019-03-30T11:18:30.541Z,23.50
2019-03-30T11:21:01.885Z,21.67
2019-03-30T11:23:33.354Z,21.87
2019-03-30T11:26:04.638Z,21.73
2019-03-30T11:28:35.899Z,21.85
2019-03-30T11:31:07.175Z,21.86
2019-03-30T11:33:38.423Z,21.75
2019-03-30T11:36:09.794Z,21.25
2019-03-30T11:38:41.157Z,21.18
2019-03-30T11:41:12.429Z,20.82
2019-03-30T11:43:43.643Z,20.65
2019-03-30T11:46:14.883Z,20.21
2019-03-30T11:48:46.329Z,20.12
2019-03-30T11:51:17.718Z,19.68
2019-03-30T11:53:48.950Z,19.96
2019-03-30T11:56:20.207Z,19.94
2019-03-30T11:58:51.739Z,19.92
2019-03-30T12:01:23.277Z,19.72
2019-03-30T12:03:54.553Z,19.96
2019-03-30T12:06:25.936Z,20.01
2019-03-30T12:08:58.427Z,19.29
2019-03-30T12:11:30.113Z,19.62
2019-03-30T12:14:01.629Z,20.18
2019-03-30T12:16:32.963Z,20.20
2019-03-30T12:19:04.518Z,20.46
2019-03-30T12:21:35.790Z,19.91
2019-03-30T12:24:07.085Z,20.11
2019-03-30T12:26:38.413Z,20.47
2019-03-30T12:29:09.766Z,20.43
2019-03-30T12:31:40.864Z,19.86
2019-03-30T12:34:13.189Z,20.21
2019-03-30T12:36:44.564Z,19.57
2019-03-30T12:39:15.755Z,20.07
2019-03-30T12:41:47.196Z,20.33
2019-03-30T12:44:18.538Z,20.08
2019-03-30T12:46:49.850Z,19.58
2019-03-30T12:49:23.226Z,19.53
2019-03-30T12:51:54.440Z,20.02
2019-03-30T12:54:25.542Z,19.90
2019-03-30T12:56:57.084Z,20.15
2019-03-30T12:59:30.252Z,19.39
2019-03-30T13:02:01.448Z,19.03
2019-03-30T13:04:32.614Z,19.22
2019-03-30T13:07:03.810Z,19.31
2019-03-30T13:09:35.308Z,19.26
2019-03-30T13:12:06.704Z,18.90
2019-03-30T13:14:37.784Z,18.96
2019-03-30T13:17:09.144Z,19.13
2019-03-30T13:19:40.688Z,19.27
2019-03-30T13:22:12.105Z,19.06
2019-03-30T13:24:43.355Z,18.97
2019-03-30T13:27:15.242Z,19.37
2019-03-30T13:29:46.363Z,18.84
2019-03-30T13:32:17.779Z,18.96
2019-03-30T13:34:49.055Z,19.12
2019-03-30T13:37:22.257Z,19.21
2019-03-30T13:39:53.365Z,18.87
2019-03-30T13:42:24.480Z,18.98
2019-03-30T13:44:55.678Z,19.00
2019-03-30T13:47:27.017Z,19.20
2019-03-30T13:49:58.625Z,19.00
2019-03-30T13:52:29.782Z,18.41
2019-03-30T13:55:01.041Z,18.50
2019-03-30T13:57:32.168Z,18.35
2019-03-30T14:00:03.411Z,18.69
2019-03-30T14:02:34.534Z,18.74
2019-03-30T14:05:06.710Z,19.10
2019-03-30T14:07:38.074Z,19.06
2019-03-30T14:10:10.688Z,18.91
2019-03-30T14:12:41.931Z,18.86
2019-03-30T14:15:13.308Z,19.01
2019-03-30T14:17:44.516Z,18.74
2019-03-30T14:20:15.929Z,18.09
2019-03-30T14:22:47.098Z,18.15
2019-03-30T14:25:18.651Z,18.09
2019-03-30T14:27:49.832Z,17.94
2019-03-30T14:30:21.171Z,18.03
2019-03-30T14:32:52.466Z,18.16
2019-03-30T14:35:23.601Z,18.38
2019-03-30T14:37:55.776Z,18.29
2019-03-30T14:40:27.094Z,18.13
2019-03-30T14:42:58.470Z,18.10
2019-03-30T14:45:29.689Z,18.26
2019-03-30T14:48:00.985Z,18.34
2019-03-30T14:50:32.259Z,18.30
2019-03-30T14:53:03.442Z,18.09
2019-03-30T14:55:34.833Z,18.06
2019-03-30T14:58:06.104Z,18.17
2019-03-30T15:00:37.576Z,18.21
2019-03-30T15:03:09.119Z,18.32
2019-03-30T15:05:40.340Z,18.28
2019-03-30T15:08:11.668Z,18.38
2019-03-30T15:10:42.917Z,18.22
2019-03-30T15:13:14.271Z,18.06
2019-03-30T15:15:45.674Z,18.03
2019-03-30T15:18:17.019Z,18.01
2019-03-30T15:20:48.378Z,18.07
2019-03-30T15:23:19.590Z,17.95
2019-03-30T15:25:50.804Z,17.94
2019-03-30T15:28:22.034Z,18.00
2019-03-30T15:30:53.336Z,17.93
2019-03-30T15:33:24.537Z,17.74
2019-03-30T15:35:55.683Z,17.59
2019-03-30T15:38:26.798Z,17.62
2019-03-30T15:40:57.905Z,17.54
2019-03-30T15:43:38.247Z,17.53
2019-03-30T15:46:02.165Z,17.49
2019-03-30T15:48:33.390Z,17.46
2019-03-30T15:51:04.762Z,17.45
2019-03-30T15:53:36.228Z,17.51
2019-03-30T15:56:07.581Z,17.46
2019-03-30T15:58:39.839Z,17.42
2019-03-30T16:01:11.274Z,17.41
2019-03-30T16:03:42.462Z,17.18
2019-03-30T16:06:13.727Z,17.08
2019-03-30T16:08:44.908Z,17.03
2019-03-30T16:11:16.213Z,16.94
2019-03-30T16:13:47.512Z,16.94
2019-03-30T16:16:18.800Z,16.89
2019-03-30T16:18:50.272Z,16.82
2019-03-30T16:21:21.597Z,16.68
2019-03-30T16:23:52.895Z,16.57
2019-03-30T16:26:24.259Z,16.50
2019-03-30T16:28:55.380Z,16.41
2019-03-30T16:31:27.144Z,16.29
2019-03-30T16:33:58.439Z,16.20
2019-03-30T16:36:29.699Z,16.24
2019-03-30T16:39:01.042Z,16.09
2019-03-30T16:41:32.124Z,15.93
2019-03-30T16:44:03.474Z,15.70
2019-03-30T16:46:34.599Z,15.49
2019-03-30T16:49:05.768Z,15.20
2019-03-30T16:51:36.886Z,15.09
2019-03-30T16:54:08.360Z,14.91
2019-03-30T16:56:39.508Z,14.86
2019-03-30T16:59:13.737Z,14.80
2019-03-30T17:01:43.899Z,14.62
2019-03-30T17:04:15.058Z,14.59
2019-03-30T17:06:46.230Z,14.46
2019-03-30T17:09:17.362Z,14.34
2019-03-30T17:11:48.515Z,14.32
2019-03-30T17:14:19.738Z,14.28
2019-03-30T17:16:50.887Z,14.21
2019-03-30T17:19:22.038Z,14.10
2019-03-30T17:21:53.209Z,14.00
2019-03-30T17:24:24.389Z,13.96
2019-03-30T17:26:55.508Z,13.93
2019-03-30T17:29:26.790Z,13.91
2019-03-30T17:31:57.988Z,13.84
2019-03-30T17:34:29.604Z,13.80
2019-03-30T17:37:00.790Z,13.80
2019-03-30T17:39:31.970Z,13.70
2019-03-30T17:42:03.160Z,13.64
2019-03-30T17:44:34.636Z,13.59
2019-03-30T17:47:05.874Z,13.46
2019-03-30T17:49:37.067Z,13.36
2019-03-30T17:52:08.491Z,13.28
2019-03-30T17:54:40.087Z,13.24
2019-03-30T17:57:11.574Z,13.15
2019-03-30T17:59:42.695Z,12.95
2019-03-30T18:02:13.908Z,12.92
2019-03-30T18:04:44.974Z,12.93
2019-03-30T18:07:16.235Z,12.87
2019-03-30T18:09:47.419Z,12.80
2019-03-30T18:12:20.439Z,12.83
2019-03-30T18:14:51.928Z,12.78
2019-03-30T18:17:23.224Z,12.80
2019-03-30T18:19:56.154Z,12.81
2019-03-30T18:22:27.485Z,12.78
2019-03-30T18:24:58.683Z,12.76
2019-03-30T18:27:30.025Z,12.75
2019-03-30T18:30:04.699Z,12.77
2019-03-30T18:32:36.495Z,12.82
2019-03-30T18:35:13.034Z,12.77
2019-03-30T18:37:57.430Z,12.75
2019-03-30T18:40:32.755Z,12.61
2019-03-30T18:43:07.034Z,12.49
2019-03-30T18:45:38.620Z,12.39
2019-03-30T18:48:19.686Z,12.31
2019-03-30T18:50:53.974Z,12.35
2019-03-30T18:53:27.679Z,12.32
2019-03-30T18:55:59.062Z,12.24
2019-03-30T18:58:41.599Z,12.22
2019-03-30T19:01:06.370Z,12.26
2019-03-30T19:03:41.836Z,12.16
2019-03-30T19:06:22.931Z,12.05
2019-03-30T19:08:55.448Z,11.90
2019-03-30T19:11:28.939Z,11.82
2019-03-30T19:14:02.477Z,11.77
2019-03-30T19:16:33.800Z,11.72
2019-03-30T19:19:05.540Z,11.70
2019-03-30T19:21:37.159Z,11.70
2019-03-30T19:24:09.565Z,11.59
2019-03-30T19:26:48.245Z,11.53
2019-03-30T19:29:19.545Z,11.32
2019-03-30T19:31:55.005Z,11.18
2019-03-30T19:34:26.462Z,11.13
2019-03-30T19:37:01.358Z,11.11
2019-03-30T19:39:33.157Z,11.06
2019-03-30T19:42:05.694Z,10.91
2019-03-30T19:44:48.735Z,10.74
2019-03-30T19:47:22.474Z,10.70
2019-03-30T19:49:58.580Z,10.22
2019-03-30T19:52:39.863Z,9.79
2019-03-30T19:55:05.159Z,9.66
2019-03-30T19:57:44.644Z,9.88
2019-03-30T20:00:22.640Z,9.71
2019-03-30T20:02:58.529Z,9.56
2019-03-30T20:05:33.485Z,9.53
2019-03-30T20:08:13.113Z,9.61
2019-03-30T20:10:56.319Z,9.45
2019-03-30T20:13:30.345Z,9.55
2019-03-30T20:16:04.539Z,9.55
2019-03-30T20:18:37.134Z,9.56
2019-03-30T20:21:18.239Z,9.52
2019-03-30T20:23:50.865Z,9.45
2019-03-30T20:26:23.813Z,9.30
2019-03-30T20:29:01.968Z,9.30
2019-03-30T20:31:38.154Z,9.19
2019-03-30T20:34:10.237Z,9.15
2019-03-30T20:36:44.039Z,9.02
2019-03-30T20:39:16.384Z,8.92
2019-03-30T20:41:49.769Z,8.82
2019-03-30T20:44:27.144Z,8.79
2019-03-30T20:47:02.176Z,8.79
2019-03-30T20:49:37.036Z,8.74
2019-03-30T20:52:23.229Z,8.73
2019-03-30T20:54:55.100Z,8.60
2019-03-30T20:57:27.308Z,8.55
2019-03-30T21:00:02.804Z,8.46
2019-03-30T21:02:41.175Z,8.34
2019-03-30T21:05:18.016Z,8.25
2019-03-30T21:07:50.574Z,8.27
2019-03-30T21:10:25.357Z,8.15
2019-03-30T21:12:56.614Z,8.00
2019-03-30T21:15:27.979Z,7.81
2019-03-30T21:18:09.258Z,7.79
2019-03-30T21:20:47.458Z,7.87
2019-03-30T21:23:20.319Z,7.86
2019-03-30T21:25:55.454Z,7.83
2019-03-30T21:28:29.397Z,7.70
2019-03-30T21:31:01.189Z,7.63
2019-03-30T21:33:38.619Z,7.35
2019-03-30T21:36:09.854Z,7.18
2019-03-30T21:38:47.379Z,7.19
2019-03-30T21:41:21.324Z,7.56
2019-03-30T21:43:55.654Z,7.57
2019-03-30T21:46:28.604Z,7.76
2019-03-30T21:48:59.850Z,7.99
2019-03-30T21:51:31.070Z,7.98
2019-03-30T21:54:02.391Z,8.14
2019-03-30T21:56:35.098Z,8.04
2019-03-30T21:59:06.494Z,7.93
2019-03-30T22:01:37.669Z,7.86
2019-03-30T22:04:08.951Z,7.82
2019-03-30T22:06:40.229Z,7.85
2019-03-30T22:09:12.219Z,7.95
2019-03-30T22:11:43.386Z,8.05
2019-03-30T22:14:14.718Z,8.17
2019-03-30T22:16:46.014Z,8.63
2019-03-30T22:19:17.208Z,8.45
2019-03-30T22:21:48.432Z,8.41
2019-03-30T22:24:19.595Z,8.53
2019-03-30T22:26:50.814Z,8.41
2019-03-30T22:29:22.065Z,8.30
2019-03-30T22:31:53.198Z,8.43
2019-03-30T22:34:24.488Z,8.46
2019-03-30T22:36:55.605Z,8.40
2019-03-30T22:39:26.963Z,8.37
2019-03-30T22:41:58.178Z,8.38
2019-03-30T22:44:29.438Z,8.39
2019-03-30T22:47:00.533Z,8.31
2019-03-30T22:49:31.651Z,8.26
2019-03-30T22:52:02.829Z,8.50
2019-03-30T22:54:33.990Z,8.61
2019-03-30T22:57:05.338Z,8.61
2019-03-30T22:59:36.549Z,8.66
2019-03-30T23:02:08.264Z,8.60
2019-03-30T23:04:39.828Z,8.60
2019-03-30T23:07:11.080Z,8.52
2019-03-30T23:09:42.302Z,8.51
2019-03-30T23:12:13.564Z,8.40
2019-03-30T23:14:44.801Z,8.32
2019-03-30T23:17:16.058Z,8.19
2019-03-30T23:19:47.285Z,8.16
2019-03-30T23:22:18.635Z,8.12
2019-03-30T23:24:49.774Z,8.11
2019-03-30T23:27:20.910Z,8.01
2019-03-30T23:29:52.114Z,8.00
2019-03-30T23:32:23.320Z,7.81
2019-03-30T23:34:54.520Z,7.67
2019-03-30T23:37:25.805Z,7.62
2019-03-30T23:39:57.184Z,7.56
2019-03-30T23:42:28.396Z,7.49
2019-03-30T23:44:59.638Z,7.43
2019-03-30T23:47:30.863Z,7.32
2019-03-30T23:50:01.919Z,7.19
2019-03-30T23:52:33.074Z,7.18
2019-03-30T23:55:04.329Z,7.07
2019-03-30T23:57:35.588Z,7.01
